Time;durP1;ratioP1;P1;durP2;ratioP2;P2;SDS_P1;SDS_P2;PMS_P1;PMS_P2;Temp;Humidity;BMP_temperature;BMP_pressure;BME280_temperature;BME280_humidity;BME280_pressure;Samples;Min_cycle;Max_cycle;Signal;HPM_P1;HPM_P2
2022/08/13 00:02:20;;;;;;;0.38;0.30;;;11.80;99.90;;;;;;5032548;28;20049;-78
2022/08/13 00:05:00;;;;;;;0.55;0.30;;;11.80;99.90;;;;;;5032983;28;20024;-80
2022/08/13 00:07:29;;;;;;;0.80;0.40;;;11.80;99.90;;;;;;5032945;28;20036;-80
2022/08/13 00:09:58;;;;;;;0.45;0.32;;;11.80;99.90;;;;;;5034283;28;20029;-80
2022/08/13 00:15:43;;;;;;;1.52;0.32;;;11.80;99.90;;;;;;5036802;28;20520;-80
2022/08/13 00:18:16;;;;;;;0.30;0.30;;;11.80;99.90;;;;;;5036112;28;20025;-80
2022/08/13 00:20:58;;;;;;;0.35;0.30;;;11.70;99.90;;;;;;5036085;28;20116;-79
2022/08/13 00:23:29;;;;;;;0.40;0.20;;;11.80;99.90;;;;;;5036117;28;20036;-78
2022/08/13 00:25:59;;;;;;;0.40;0.30;;;11.70;99.90;;;;;;5036285;28;20025;-78
2022/08/13 00:28:30;;;;;;;0.73;0.30;;;11.60;99.90;;;;;;5035964;28;20030;-78
2022/08/13 00:30:59;;;;;;;0.30;0.30;;;11.70;99.90;;;;;;5036380;28;20025;-78
2022/08/13 00:33:27;;;;;;;0.30;0.20;;;11.70;99.90;;;;;;5018268;28;20028;-78
2022/08/13 00:35:55;;;;;;;0.63;0.30;;;11.70;99.90;;;;;;5036005;28;20022;-77
2022/08/13 00:38:28;;;;;;;0.30;0.20;;;11.70;99.90;;;;;;5036008;28;20498;-78
2022/08/13 00:40:58;;;;;;;0.95;0.30;;;11.70;99.90;;;;;;5035873;28;20033;-78
2022/08/13 00:43:33;;;;;;;0.57;0.35;;;11.80;99.90;;;;;;5036596;28;20038;-79
2022/08/13 00:46:03;;;;;;;2.58;0.30;;;12.00;99.90;;;;;;5035893;28;20014;-78
2022/08/13 00:48:43;;;;;;;0.28;0.25;;;12.00;99.90;;;;;;5035710;28;20030;-78
2022/08/13 00:51:16;;;;;;;1.85;0.38;;;12.10;99.90;;;;;;5018116;28;20031;-78
2022/08/13 00:53:44;;;;;;;0.35;0.30;;;12.20;99.90;;;;;;5035888;28;20022;-78
2022/08/13 00:56:13;;;;;;;0.30;0.30;;;12.20;99.90;;;;;;5035476;28;20044;-78
2022/08/13 00:58:41;;;;;;;0.38;0.25;;;12.30;99.90;;;;;;5035533;28;20075;-78
2022/08/13 01:01:11;;;;;;;0.32;0.30;;;12.40;99.90;;;;;;5035445;28;20025;-78
2022/08/13 01:03:39;;;;;;;0.28;0.25;;;12.50;99.90;;;;;;5035349;28;20478;-78
2022/08/13 01:06:08;;;;;;;0.60;0.30;;;12.50;99.90;;;;;;5035550;28;20028;-78
2022/08/13 01:08:40;;;;;;;0.52;0.30;;;12.50;99.90;;;;;;5035169;28;20029;-78
2022/08/13 01:11:17;;;;;;;0.22;0.22;;;12.50;99.90;;;;;;5035403;28;20025;-78
2022/08/13 01:13:45;;;;;;;1.05;0.20;;;12.60;99.90;;;;;;5035438;28;20021;-79
2022/08/13 01:16:15;;;;;;;0.20;0.20;;;12.60;99.90;;;;;;5036001;28;20014;-78
2022/08/13 01:18:50;;;;;;;0.38;0.30;;;12.70;99.90;;;;;;5035104;28;20029;-79
2022/08/13 01:21:18;;;;;;;;;;;12.80;99.90;;;;;;5035926;28;20470;-78
2022/08/13 01:23:49;;;;;;;0.63;0.30;;;12.80;99.90;;;;;;5035096;28;19924;-79
2022/08/13 01:26:19;;;;;;;0.20;0.20;;;12.90;99.90;;;;;;5034926;28;20104;-79
2022/08/13 01:28:50;;;;;;;0.40;0.32;;;12.90;99.90;;;;;;5035095;28;20036;-78
2022/08/13 01:31:19;;;;;;;0.20;0.20;;;13.00;99.90;;;;;;5035000;28;20017;-78
2022/08/13 01:33:50;;;;;;;0.47;0.30;;;13.10;99.90;;;;;;5034927;28;20017;-79
2022/08/13 01:36:18;;;;;;;0.40;0.30;;;13.10;99.90;;;;;;5034846;28;20032;-79
2022/08/13 01:38:46;;;;;;;0.60;0.40;;;13.20;99.90;;;;;;5034692;28;20029;-79
2022/08/13 01:41:13;;;;;;;0.47;0.30;;;13.30;99.90;;;;;;5035003;28;20025;-79
2022/08/13 01:43:42;;;;;;;0.30;0.25;;;13.30;99.90;;;;;;5034786;28;20061;-79
2022/08/13 01:46:11;;;;;;;0.80;0.50;;;13.30;99.90;;;;;;5034712;28;20101;-79
2022/08/13 01:51:32;;;;;;;0.20;0.20;;;13.30;99.90;;;;;;5034963;28;20028;-79
2022/08/13 01:54:01;;;;;;;1.27;0.30;;;13.30;99.90;;;;;;5034595;28;20022;-79
2022/08/13 01:56:31;;;;;;;0.63;0.43;;;13.40;99.90;;;;;;5034411;28;20115;-80
2022/08/13 01:59:02;;;;;;;0.98;0.30;;;13.40;99.90;;;;;;5034348;28;20447;-79
2022/08/13 02:01:31;;;;;;;0.82;0.47;;;13.40;99.90;;;;;;5034427;28;20037;-79
2022/08/13 02:03:59;;;;;;;0.63;0.32;;;13.50;99.90;;;;;;5034474;28;20429;-79
2022/08/13 02:06:30;;;;;;;0.68;0.50;;;13.60;99.90;;;;;;5034339;28;20029;-80
2022/08/13 02:09:00;;;;;;;0.47;0.30;;;13.60;99.90;;;;;;5034430;28;20052;-79
2022/08/13 02:11:34;;;;;;;0.65;0.45;;;13.80;99.90;;;;;;5034311;28;20029;-80
2022/08/13 02:14:03;;;;;;;2.45;0.47;;;13.90;99.90;;;;;;5034148;28;20480;-79
2022/08/13 02:16:36;;;;;;;0.82;0.30;;;14.00;99.90;;;;;;5034147;28;20466;-79
2022/08/13 02:19:07;;;;;;;0.52;0.30;;;14.10;99.90;;;;;;5034162;28;20018;-79
2022/08/13 02:21:38;;;;;;;0.25;0.20;;;14.10;99.90;;;;;;5033923;28;20068;-79
2022/08/13 02:24:13;;;;;;;0.35;0.32;;;14.10;99.90;;;;;;5033969;28;20024;-80
2022/08/13 02:26:43;;;;;;;0.20;0.20;;;14.10;99.90;;;;;;5034121;28;20482;-79
2022/08/13 02:29:12;;;;;;;0.40;0.30;;;14.00;99.90;;;;;;5033840;28;20036;-80
2022/08/13 02:31:44;;;;;;;0.70;0.40;;;14.10;99.90;;;;;;5015933;28;20021;-79
2022/08/13 02:34:12;;;;;;;0.55;0.40;;;14.20;99.90;;;;;;5033763;28;20023;-79
2022/08/13 02:36:41;;;;;;;0.30;0.30;;;14.20;99.90;;;;;;5033741;28;20378;-80
2022/08/13 02:39:10;;;;;;;0.82;0.38;;;14.30;99.90;;;;;;5033581;28;20063;-80
2022/08/13 02:41:38;;;;;;;0.80;0.28;;;14.50;99.90;;;;;;5033683;28;20355;-79
2022/08/13 02:44:08;;;;;;;0.40;0.30;;;14.70;99.90;;;;;;5033814;28;20458;-80
2022/08/13 02:46:37;;;;;;;1.27;0.40;;;14.80;99.90;;;;;;5033558;28;20100;-80
2022/08/13 02:49:05;;;;;;;0.73;0.50;;;15.00;99.90;;;;;;5033672;28;20107;-80
2022/08/13 02:51:33;;;;;;;1.60;0.43;;;14.90;99.90;;;;;;5033393;28;20021;-80
2022/08/13 02:54:01;;;;;;;0.63;0.40;;;14.90;99.90;;;;;;5033640;28;20036;-80
2022/08/13 02:56:30;;;;;;;0.47;0.30;;;14.80;99.90;;;;;;5015895;28;20471;-79
2022/08/13 02:58:57;;;;;;;0.80;0.40;;;14.80;99.90;;;;;;5033387;28;20035;-80
2022/08/13 03:01:26;;;;;;;3.33;2.42;;;14.60;99.90;;;;;;5033294;28;20076;-79
2022/08/13 03:03:55;;;;;;;1.58;0.95;;;14.60;99.90;;;;;;5033715;28;20033;-79
2022/08/13 03:06:24;;;;;;;0.45;0.32;;;14.40;99.90;;;;;;5033420;28;20026;-79
2022/08/13 03:08:52;;;;;;;0.70;0.30;;;14.20;99.90;;;;;;5033368;28;20029;-79
2022/08/13 03:11:21;;;;;;;0.32;0.28;;;14.20;99.90;;;;;;5033308;28;20080;-79
2022/08/13 03:13:59;;;;;;;0.30;0.30;;;14.10;99.90;;;;;;5033379;28;20458;-80
2022/08/13 03:16:27;;;;;;;0.52;0.40;;;14.10;99.90;;;;;;5033247;28;20037;-79
2022/08/13 03:18:57;;;;;;;0.57;0.22;;;14.10;99.90;;;;;;5033520;28;20473;-79
2022/08/13 03:21:38;;;;;;;0.30;0.25;;;14.10;99.90;;;;;;5033264;28;20029;-79
2022/08/13 03:24:08;;;;;;;0.32;0.20;;;14.10;99.90;;;;;;5033147;28;20037;-79
2022/08/13 03:26:36;;;;;;;0.10;0.10;;;14.20;99.90;;;;;;5033216;28;20030;-79
2022/08/13 03:29:04;;;;;;;2.28;0.30;;;14.30;99.90;;;;;;5033292;28;20022;-79
2022/08/13 03:31:34;;;;;;;0.35;0.30;;;14.40;99.90;;;;;;5033154;28;20030;-80
2022/08/13 03:34:03;;;;;;;0.40;0.30;;;14.30;99.90;;;;;;5033154;28;20101;-80
2022/08/13 03:36:32;;;;;;;0.60;0.30;;;14.30;99.90;;;;;;5033104;28;20053;-80
2022/08/13 03:39:01;;;;;;;0.57;0.30;;;14.40;99.90;;;;;;5033248;28;20057;-80
2022/08/13 03:41:29;;;;;;;0.52;0.38;;;14.50;99.90;;;;;;5033152;28;20036;-79
2022/08/13 03:43:59;;;;;;;0.68;0.40;;;14.60;99.90;;;;;;5033127;28;20080;-79
2022/08/13 03:46:27;;;;;;;0.60;0.32;;;14.60;99.90;;;;;;5037012;28;20049;-80
2022/08/13 03:48:55;;;;;;;0.30;0.20;;;14.60;99.90;;;;;;5036866;28;20057;-80
2022/08/13 03:51:24;;;;;;;1.08;0.50;;;14.50;99.90;;;;;;5018987;28;20029;-80
2022/08/13 03:53:59;;;;;;;0.30;0.30;;;14.40;99.90;;;;;;5036746;28;20032;-80
2022/08/13 03:56:27;;;;;;;0.65;0.43;;;14.40;99.90;;;;;;5036735;28;20407;-80
2022/08/13 03:58:54;;;;;;;0.30;0.25;;;14.40;99.90;;;;;;5036892;28;20022;-80
2022/08/13 04:01:22;;;;;;;0.30;0.20;;;14.50;99.90;;;;;;5036413;28;20298;-79
2022/08/13 04:03:50;;;;;;;0.32;0.25;;;14.50;99.90;;;;;;5036586;28;20034;-82
2022/08/13 04:06:22;;;;;;;0.40;0.28;;;14.60;99.90;;;;;;5036504;28;20028;-80
2022/08/13 04:08:50;;;;;;;0.25;0.20;;;14.70;99.90;;;;;;5036519;28;20489;-81
2022/08/13 04:11:22;;;;;;;0.40;0.20;;;14.80;99.90;;;;;;5036508;28;20063;-80
2022/08/13 04:13:50;;;;;;;0.22;0.22;;;14.80;99.90;;;;;;5036423;28;20462;-80
2022/08/13 04:16:22;;;;;;;0.45;0.30;;;14.90;99.90;;;;;;5036178;28;20061;-81
2022/08/13 04:18:51;;;;;;;2.35;0.30;;;14.90;99.90;;;;;;5036315;28;20071;-80
2022/08/13 04:21:21;;;;;;;0.30;0.28;;;14.90;99.90;;;;;;5036259;28;20029;-80
2022/08/13 04:23:50;;;;;;;0.82;0.30;;;14.90;99.90;;;;;;5036263;28;20034;-80
2022/08/13 04:26:23;;;;;;;1.75;0.40;;;15.00;99.90;;;;;;5036025;28;20021;-80
2022/08/13 04:28:53;;;;;;;0.30;0.20;;;15.00;99.90;;;;;;5036180;28;20026;-80
2022/08/13 04:31:21;;;;;;;0.55;0.28;;;15.00;99.90;;;;;;5036089;28;20111;-79
2022/08/13 04:33:49;;;;;;;0.85;0.20;;;15.00;99.90;;;;;;5036097;28;20025;-80
2022/08/13 04:36:18;;;;;;;0.47;0.20;;;15.00;99.90;;;;;;5036173;28;20021;-80
2022/08/13 04:38:45;;;;;;;0.30;0.22;;;15.00;99.90;;;;;;5035933;28;20029;-80
2022/08/13 04:41:13;;;;;;;0.20;0.20;;;15.00;99.90;;;;;;5035798;28;20029;-80
2022/08/13 04:43:41;;;;;;;0.55;0.40;;;15.00;99.90;;;;;;5035814;28;20542;-80
2022/08/13 04:46:08;;;;;;;0.38;0.20;;;15.10;99.90;;;;;;5035925;28;20047;-80
2022/08/13 04:48:36;;;;;;;0.43;0.20;;;15.10;99.90;;;;;;5035938;28;20470;-80
2022/08/13 04:51:05;;;;;;;1.55;0.30;;;15.00;99.90;;;;;;5035757;28;20036;-80
2022/08/13 04:53:35;;;;;;;0.43;0.20;;;15.00;99.90;;;;;;5035587;28;20493;-80
2022/08/13 04:56:04;;;;;;;0.50;0.40;;;15.00;99.90;;;;;;5035500;28;20121;-80
2022/08/13 04:58:36;;;;;;;0.28;0.28;;;15.00;99.90;;;;;;5017822;28;20419;-80
2022/08/13 05:01:12;;;;;;;0.43;0.20;;;15.00;99.90;;;;;;5035636;28;20017;-79
2022/08/13 05:03:47;;;;;;;0.85;0.38;;;15.00;99.90;;;;;;5035660;28;20033;-80
2022/08/13 05:06:19;;;;;;;0.30;0.25;;;15.00;99.90;;;;;;5035450;28;20368;-80
2022/08/13 05:08:48;;;;;;;0.20;0.20;;;15.00;99.90;;;;;;5035568;28;20021;-80
2022/08/13 05:11:18;;;;;;;1.42;0.35;;;15.00;99.90;;;;;;5035406;28;20022;-80
2022/08/13 05:13:47;;;;;;;0.45;0.20;;;15.00;99.90;;;;;;5035284;28;20049;-80
2022/08/13 05:16:17;;;;;;;2.90;0.10;;;15.00;99.90;;;;;;5035282;28;20022;-80
2022/08/13 05:18:52;;;;;;;0.45;0.25;;;14.90;99.90;;;;;;5035176;28;20013;-80
2022/08/13 05:21:22;;;;;;;0.47;0.20;;;14.90;99.90;;;;;;5035258;28;20113;-80
2022/08/13 05:23:53;;;;;;;0.20;0.20;;;14.80;99.90;;;;;;5035663;28;20064;-80
2022/08/13 05:26:31;;;;;;;1.95;0.40;;;14.70;99.90;;;;;;5035788;28;20052;-78
2022/08/13 05:29:06;;;;;;;0.20;0.20;;;14.60;99.90;;;;;;5035304;28;20022;-80
2022/08/13 05:31:37;;;;;;;0.20;0.20;;;14.50;99.90;;;;;;5034584;28;20030;-80
2022/08/13 05:34:05;;;;;;;0.75;0.50;;;14.40;99.90;;;;;;5034986;28;20021;-80
2022/08/13 05:36:33;;;;;;;0.43;0.20;;;14.40;99.90;;;;;;5034717;28;20463;-81
2022/08/13 05:39:01;;;;;;;1.38;0.32;;;14.30;99.90;;;;;;5017476;28;20030;-80
2022/08/13 05:41:28;;;;;;;0.43;0.32;;;14.30;99.90;;;;;;5034744;28;20466;-80
2022/08/13 05:43:56;;;;;;;0.20;0.20;;;14.20;99.90;;;;;;5034722;28;20033;-80
2022/08/13 05:46:24;;;;;;;0.52;0.35;;;14.10;99.90;;;;;;5034909;28;20467;-80
2022/08/13 05:48:57;;;;;;;2.40;0.35;;;14.10;99.90;;;;;;5034732;28;20363;-80
2022/08/13 05:51:31;;;;;;;0.20;0.20;;;14.00;99.90;;;;;;5034673;28;20487;-80
2022/08/13 05:54:02;;;;;;;0.57;0.40;;;13.90;99.90;;;;;;5034370;28;20029;-80
2022/08/13 05:56:35;;;;;;;0.22;0.20;;;13.90;99.90;;;;;;5034296;28;20025;-80
2022/08/13 05:59:06;;;;;;;1.27;0.30;;;13.90;99.90;;;;;;5034903;28;20091;-80
2022/08/13 06:04:19;;;;;;;1.45;0.28;;;13.80;99.90;;;;;;5034798;28;20070;-80
2022/08/13 06:06:47;;;;;;;0.73;0.25;;;13.70;99.90;;;;;;5033627;28;20104;-80
2022/08/13 06:09:15;;;;;;;1.33;0.40;;;13.70;99.90;;;;;;5034258;28;20030;-80
2022/08/13 06:11:42;;;;;;;0.80;0.40;;;13.60;99.90;;;;;;5033975;28;20482;-80
2022/08/13 06:14:20;;;;;;;1.13;0.20;;;13.60;99.90;;;;;;5034173;28;20108;-80
2022/08/13 06:16:58;;;;;;;1.35;0.50;;;13.50;99.90;;;;;;5034122;28;20080;-80
2022/08/13 06:19:31;;;;;;;0.82;0.50;;;13.60;99.90;;;;;;5033961;28;20051;-80
2022/08/13 06:22:03;;;;;;;0.50;0.38;;;13.50;99.90;;;;;;5033829;28;20478;-81
2022/08/13 06:24:32;;;;;;;1.00;0.38;;;13.50;99.90;;;;;;5034055;28;20429;-81
2022/08/13 06:27:04;;;;;;;1.85;0.40;;;13.40;99.90;;;;;;5033626;28;20025;-81
2022/08/13 06:29:43;;;;;;;2.83;0.43;;;13.30;99.90;;;;;;5033986;28;20032;-81
2022/08/13 06:32:13;;;;;;;3.72;0.47;;;13.30;99.90;;;;;;5033764;28;20429;-81
2022/08/13 06:34:41;;;;;;;0.80;0.60;;;13.20;99.90;;;;;;5033973;28;20028;-81
2022/08/13 06:37:09;;;;;;;1.40;0.63;;;13.10;99.90;;;;;;5033735;28;20104;-81
2022/08/13 06:39:41;;;;;;;0.88;0.52;;;13.00;99.90;;;;;;5033576;28;20025;-81
2022/08/13 06:42:08;;;;;;;5.88;2.15;;;13.00;99.90;;;;;;5033639;28;20116;-81
2022/08/13 06:44:36;;;;;;;4.45;2.13;;;13.00;99.90;;;;;;5033739;28;20025;-81
2022/08/13 06:47:05;;;;;;;7.68;2.00;;;13.00;99.90;;;;;;5033642;28;20381;-81
2022/08/13 06:49:35;;;;;;;2.53;1.10;;;13.00;99.90;;;;;;5033644;28;20018;-81
2022/08/13 06:52:05;;;;;;;0.52;0.30;;;12.90;99.90;;;;;;5033427;28;20029;-81
2022/08/13 06:54:33;;;;;;;2.05;0.30;;;12.90;99.90;;;;;;5033569;28;20462;-81
2022/08/13 06:57:05;;;;;;;0.63;0.43;;;12.80;99.90;;;;;;5015688;28;20029;-81
2022/08/13 06:59:39;;;;;;;1.05;0.40;;;12.80;99.90;;;;;;5033579;28;20022;-81
2022/08/13 07:02:33;;;;;;;1.73;0.63;;;12.70;99.90;;;;;;5032790;28;20041;-82
2022/08/13 07:05:00;;;;;;;1.30;0.40;;;12.70;99.90;;;;;;5033217;28;20516;-81
2022/08/13 07:07:29;;;;;;;0.93;0.40;;;12.60;99.90;;;;;;5033283;28;20029;-82
2022/08/13 07:10:06;;;;;;;1.40;0.50;;;12.60;99.90;;;;;;5033046;28;20040;-82
2022/08/13 07:12:41;;;;;;;1.35;0.50;;;12.50;99.90;;;;;;5032182;28;20025;-82
2022/08/13 07:15:29;;;;;;;1.55;0.60;;;12.40;99.90;;;;;;5033852;28;20029;-82
2022/08/13 07:18:20;;;;;;;0.70;0.40;;;12.40;99.90;;;;;;5015522;28;20044;-82
2022/08/13 07:20:54;;;;;;;1.80;0.80;;;12.40;99.90;;;;;;5019168;28;20037;-82
2022/08/13 07:23:33;;;;;;;1.10;0.57;;;12.30;99.90;;;;;;5037267;28;20041;-81
2022/08/13 07:26:18;;;;;;;1.48;0.73;;;12.20;99.90;;;;;;5037184;28;20097;-82
2022/08/13 07:28:54;;;;;;;0.98;0.55;;;12.20;99.90;;;;;;5037408;28;20064;-82
2022/08/13 07:31:32;;;;;;;1.60;1.00;;;12.10;99.90;;;;;;5037131;28;20045;-82
2022/08/13 07:34:04;;;;;;;3.13;1.52;;;12.10;99.90;;;;;;5037498;28;20083;-82
2022/08/13 07:36:36;;;;;;;3.17;1.48;;;12.00;99.90;;;;;;5036888;28;20025;-82
2022/08/13 07:39:09;;;;;;;2.97;1.60;;;12.00;99.90;;;;;;5037070;28;20359;-82
2022/08/13 07:41:46;;;;;;;4.80;2.58;;;12.00;99.90;;;;;;5037140;28;20091;-82
2022/08/13 07:44:21;;;;;;;7.28;4.75;;;11.90;99.90;;;;;;5036764;28;20045;-82
2022/08/13 07:46:54;;;;;;;2.38;1.70;;;11.90;99.90;;;;;;5036855;28;20467;-82
2022/08/13 07:49:23;;;;;;;3.55;0.77;;;11.90;99.90;;;;;;5037046;28;20104;-82
2022/08/13 07:51:51;;;;;;;1.65;1.02;;;11.80;99.90;;;;;;5036749;28;20029;-81
2022/08/13 07:54:19;;;;;;;1.83;0.70;;;11.80;99.90;;;;;;5036863;28;20105;-81
2022/08/13 07:56:49;;;;;;;2.03;1.00;;;11.70;99.90;;;;;;5036722;28;20048;-81
2022/08/13 07:59:18;;;;;;;1.48;0.75;;;11.70;99.90;;;;;;5037062;28;20025;-81
2022/08/13 08:01:54;;;;;;;2.95;0.80;;;11.70;99.90;;;;;;5036399;28;20045;-81
2022/08/13 08:04:24;;;;;;;1.40;0.60;;;11.70;99.90;;;;;;5036555;28;20033;-81
2022/08/13 08:06:52;;;;;;;0.82;0.60;;;11.60;99.90;;;;;;5036390;28;20045;-81
2022/08/13 08:09:24;;;;;;;2.55;1.50;;;11.60;99.90;;;;;;5036502;28;20029;-81
2022/08/13 08:14:37;;;;;;;;;;;11.60;99.90;;;;;;5036970;28;20064;-81
2022/08/13 08:17:08;;;;;;;6.13;2.30;;;11.50;99.90;;;;;;5036307;28;19905;-81
2022/08/13 08:19:48;;;;;;;2.30;1.20;;;11.50;99.90;;;;;;5036393;28;20458;-81
2022/08/13 08:22:15;;;;;;;2.53;1.50;;;11.50;99.90;;;;;;5036480;28;20374;-81
2022/08/13 08:24:51;;;;;;;2.22;1.00;;;11.50;99.90;;;;;;5018298;28;20052;-81
2022/08/13 08:27:25;;;;;;;1.10;0.90;;;11.40;99.90;;;;;;5036099;28;20049;-81
2022/08/13 08:29:54;;;;;;;2.17;0.90;;;11.40;99.90;;;;;;5035374;28;20478;-80
2022/08/13 08:32:22;;;;;;;2.70;0.98;;;11.40;99.90;;;;;;5033524;28;20033;-79
2022/08/13 08:34:50;;;;;;;1.30;0.82;;;11.30;99.90;;;;;;5022215;28;20021;-80
2022/08/13 08:43:04;;;;;;;1.30;0.80;;;11.30;99.90;;;;;;5036697;28;20299;-81
2022/08/13 08:45:31;;;;;;;1.83;1.00;;;11.20;99.90;;;;;;5037993;28;20030;-81
2022/08/13 08:48:00;;;;;;;1.90;0.70;;;11.20;99.90;;;;;;5032230;28;20026;-79
2022/08/13 08:50:28;;;;;;;1.48;0.93;;;11.20;99.90;;;;;;5035226;28;20039;-79
2022/08/13 08:55:44;;;;;;;0.88;0.70;;;11.20;99.90;;;;;;5037775;28;20029;-80
2022/08/13 08:58:13;;;;;;;3.08;0.60;;;11.20;99.90;;;;;;5037096;28;20021;-80
2022/08/13 09:00:42;;;;;;;2.85;0.95;;;11.10;99.90;;;;;;5034832;28;20414;-81
2022/08/13 09:03:11;;;;;;;2.15;0.88;;;11.10;99.90;;;;;;5035879;28;20045;-79
2022/08/13 09:05:38;;;;;;;2.22;1.05;;;11.00;99.90;;;;;;5036271;28;20010;-80
2022/08/13 09:08:06;;;;;;;0.85;0.55;;;11.00;99.90;;;;;;5038431;28;20036;-80
2022/08/13 09:10:36;;;;;;;0.82;0.68;;;11.00;99.90;;;;;;5015879;28;20033;-80
2022/08/13 09:13:07;;;;;;;1.08;0.68;;;10.90;99.90;;;;;;5033683;28;20018;-80
2022/08/13 09:15:39;;;;;;;1.42;0.98;;;11.00;99.90;;;;;;5032954;28;20022;-80
2022/08/13 09:18:07;;;;;;;2.45;1.20;;;10.90;99.90;;;;;;5032885;28;20029;-80
2022/08/13 09:20:35;;;;;;;3.28;1.52;;;10.90;99.90;;;;;;5033784;28;20037;-80
2022/08/13 09:23:08;;;;;;;1.77;1.30;;;10.90;99.90;;;;;;5032573;28;20037;-80
2022/08/13 09:25:41;;;;;;;1.88;1.25;;;10.80;99.90;;;;;;5034059;28;20013;-80
2022/08/13 09:28:09;;;;;;;3.33;1.52;;;10.80;99.90;;;;;;5033168;28;20033;-80
2022/08/13 09:30:39;;;;;;;2.28;1.40;;;10.80;99.90;;;;;;5033490;28;20025;-80
2022/08/13 09:33:09;;;;;;;1.95;1.30;;;10.70;99.90;;;;;;5032693;28;20029;-81
2022/08/13 09:35:39;;;;;;;2.00;1.30;;;10.60;99.90;;;;;;5032015;28;20150;-80
2022/08/13 09:38:07;;;;;;;1.33;0.90;;;10.60;99.90;;;;;;5031422;28;20030;-80
2022/08/13 09:40:44;;;;;;;1.58;1.10;;;10.60;99.90;;;;;;5035284;28;20070;-80
2022/08/13 09:43:21;;;;;;;1.95;0.90;;;10.50;99.90;;;;;;5033955;28;20029;-80
2022/08/13 09:45:49;;;;;;;3.00;1.33;;;10.40;99.90;;;;;;5035969;28;20025;-80
2022/08/13 09:48:17;;;;;;;1.77;1.00;;;10.40;99.90;;;;;;5034287;28;20848;-80
2022/08/13 09:50:45;;;;;;;3.85;1.48;;;10.30;99.90;;;;;;5034289;28;20045;-80
2022/08/13 09:53:13;;;;;;;2.13;1.30;;;10.30;99.90;;;;;;5032986;28;20018;-80
2022/08/13 09:55:40;;;;;;;3.58;1.40;;;10.20;99.90;;;;;;5032115;28;20033;-80
2022/08/13 09:58:10;;;;;;;6.10;1.50;;;10.20;99.90;;;;;;5029549;28;20390;-81
2022/08/13 10:00:40;;;;;;;2.75;1.65;;;10.20;99.90;;;;;;5033223;28;20151;-81
2022/08/13 10:03:09;;;;;;;2.58;1.45;;;10.10;99.90;;;;;;5031264;28;20046;-83
2022/08/13 10:05:38;;;;;;;2.72;1.67;;;10.10;99.90;;;;;;5032229;28;20414;-80
2022/08/13 10:08:18;;;;;;;2.33;1.75;;;10.10;99.90;;;;;;5032962;28;20021;-80
2022/08/13 10:10:48;;;;;;;3.28;2.10;;;10.00;99.90;;;;;;5032629;28;20548;-78
2022/08/13 10:13:15;;;;;;;4.13;2.63;;;10.00;99.90;;;;;;5033162;28;20033;-79
2022/08/13 10:15:43;;;;;;;4.82;3.30;;;9.90;99.90;;;;;;5032309;28;20014;-79
2022/08/13 10:18:11;;;;;;;4.63;3.13;;;9.90;99.90;;;;;;5030138;28;20109;-77
2022/08/13 10:20:45;;;;;;;5.13;3.20;;;9.90;99.90;;;;;;5031961;28;20402;-79
2022/08/13 10:23:15;;;;;;;5.70;3.35;;;9.80;99.90;;;;;;5032910;28;20544;-77
2022/08/13 10:25:46;;;;;;;4.35;3.08;;;9.80;99.90;;;;;;5032938;28;20021;-80
2022/08/13 10:28:21;;;;;;;6.80;3.88;;;9.80;99.90;;;;;;5033056;28;20036;-78
2022/08/13 10:30:49;;;;;;;;;;;9.80;99.90;;;;;;5033804;28;20049;-79
2022/08/13 10:33:17;;;;;;;7.15;4.10;;;9.70;99.90;;;;;;5033228;28;19959;-79
2022/08/13 10:35:52;;;;;;;8.10;3.78;;;9.80;99.90;;;;;;5033303;28;20451;-80
2022/08/13 10:38:26;;;;;;;7.95;4.10;;;9.70;99.90;;;;;;5031736;28;20032;-79
2022/08/13 10:41:04;;;;;;;6.72;3.83;;;9.70;99.90;;;;;;5030893;28;20048;-80
2022/08/13 10:43:32;;;;;;;5.47;3.80;;;9.70;99.90;;;;;;5030655;28;20470;-80
2022/08/13 10:46:00;;;;;;;5.30;3.08;;;9.70;99.90;;;;;;5033170;28;20422;-80
2022/08/13 10:48:29;;;;;;;5.63;3.35;;;9.70;99.90;;;;;;5033043;28;20056;-80
2022/08/13 10:50:58;;;;;;;4.20;2.33;;;9.70;99.90;;;;;;5033015;28;20017;-80
2022/08/13 10:56:13;;;;;;;6.47;2.45;;;9.60;99.90;;;;;;5032828;28;20040;-81
2022/08/13 10:58:42;;;;;;;4.28;2.70;;;9.60;99.90;;;;;;5033144;28;20037;-81
2022/08/13 11:01:11;;;;;;;6.53;2.78;;;9.60;99.90;;;;;;5033029;28;20084;-81
2022/08/13 11:03:44;;;;;;;4.60;2.42;;;9.60;99.90;;;;;;5033413;28;20049;-81
2022/08/13 11:06:16;;;;;;;3.03;1.88;;;9.60;99.90;;;;;;5033469;28;20052;-81
2022/08/13 11:08:44;;;;;;;5.22;2.00;;;9.60;99.90;;;;;;5033457;28;20071;-81
2022/08/13 11:11:12;;;;;;;3.53;1.80;;;9.60;99.90;;;;;;5033404;28;20045;-81
2022/08/13 11:13:39;;;;;;;2.22;1.60;;;9.60;99.90;;;;;;5033342;28;20018;-81
2022/08/13 11:18:55;;;;;;;3.25;1.52;;;9.50;99.90;;;;;;4992705;28;20383;-81
2022/08/13 11:21:26;;;;;;;4.40;1.77;;;9.50;99.90;;;;;;5033088;28;20025;-80
2022/08/13 11:23:54;;;;;;;3.95;1.90;;;9.50;99.90;;;;;;5033264;28;20064;-81
2022/08/13 11:26:21;;;;;;;2.05;1.55;;;9.50;99.90;;;;;;5033076;28;20040;-81
2022/08/13 11:28:49;;;;;;;2.63;1.42;;;9.50;99.90;;;;;;5033305;28;20079;-81
2022/08/13 11:31:16;;;;;;;2.60;1.27;;;9.50;99.90;;;;;;5033317;28;20048;-81
2022/08/13 11:33:43;;;;;;;3.58;1.23;;;9.50;99.90;;;;;;5033245;28;20025;-80
2022/08/13 11:36:11;;;;;;;3.30;1.77;;;9.50;99.90;;;;;;5033085;28;20413;-81
2022/08/13 11:38:38;;;;;;;2.03;1.10;;;9.50;99.90;;;;;;5033257;28;20018;-81
2022/08/13 11:41:07;;;;;;;2.42;1.50;;;9.50;99.90;;;;;;5033119;28;20029;-81
2022/08/13 11:43:35;;;;;;;4.70;1.83;;;9.40;99.90;;;;;;5015355;28;20405;-81
2022/08/13 11:46:02;;;;;;;3.03;1.77;;;9.40;99.90;;;;;;5033061;28;20339;-81
2022/08/13 11:48:30;;;;;;;4.35;1.60;;;9.50;99.90;;;;;;5033103;28;20104;-82
2022/08/13 11:50:58;;;;;;;1.83;1.25;;;9.40;99.90;;;;;;5032875;28;20072;-81
2022/08/13 11:53:26;;;;;;;2.92;1.42;;;9.50;99.90;;;;;;5031554;28;20413;-81
2022/08/13 11:55:53;;;;;;;4.38;1.92;;;9.50;99.90;;;;;;5032725;28;20029;-81
2022/08/13 11:58:21;;;;;;;3.70;1.90;;;9.50;99.90;;;;;;5031618;28;20444;-77
2022/08/13 12:00:48;;;;;;;3.33;1.98;;;9.60;99.90;;;;;;5032926;28;20052;-81
2022/08/13 12:03:17;;;;;;;6.60;2.35;;;9.60;99.90;;;;;;5032736;28;20045;-80
2022/08/13 12:05:45;;;;;;;6.32;2.00;;;9.60;99.90;;;;;;5034244;28;20041;-81
2022/08/13 12:08:17;;;;;;;5.05;2.33;;;9.60;99.90;;;;;;5036776;28;20056;-81
2022/08/13 12:10:46;;;;;;;3.92;2.20;;;9.60;99.90;;;;;;5036622;28;20021;-81
2022/08/13 12:13:16;;;;;;;3.97;1.73;;;9.70;99.90;;;;;;5036365;28;20083;-81
2022/08/13 12:15:44;;;;;;;2.88;1.67;;;9.70;99.90;;;;;;5036384;28;20021;-79
2022/08/13 12:18:16;;;;;;;3.10;1.88;;;9.70;99.90;;;;;;5036873;28;20496;-82
2022/08/13 12:20:47;;;;;;;3.17;1.48;;;9.70;99.90;;;;;;5036298;28;20026;-81
2022/08/13 12:23:14;;;;;;;3.13;1.50;;;9.70;99.90;;;;;;5051709;28;20037;-81
2022/08/13 12:25:41;;;;;;;2.92;1.75;;;9.70;99.90;;;;;;5036075;28;20030;-82
2022/08/13 12:28:29;;;;;;;1.75;1.23;;;9.70;99.90;;;;;;5036211;28;20351;-81
2022/08/13 12:31:01;;;;;;;3.85;1.98;;;9.70;99.90;;;;;;5036051;28;20075;-81
2022/08/13 12:33:30;;;;;;;3.08;1.13;;;9.70;99.90;;;;;;5036832;28;20025;-81
2022/08/13 12:36:01;;;;;;;1.52;0.98;;;9.70;99.90;;;;;;5035898;28;20575;-80
2022/08/13 12:38:29;;;;;;;2.78;1.17;;;9.70;99.90;;;;;;5036116;28;20079;-81
2022/08/13 12:40:58;;;;;;;1.80;0.90;;;9.70;99.90;;;;;;5035953;28;20033;-81
2022/08/13 12:43:25;;;;;;;5.57;1.10;;;9.70;99.90;;;;;;5035958;28;20030;-82
2022/08/13 12:45:53;;;;;;;6.07;1.27;;;9.70;99.90;;;;;;5035798;28;20025;-81
2022/08/13 12:48:20;;;;;;;2.10;1.02;;;9.70;99.90;;;;;;5035928;28;20374;-81
2022/08/13 12:50:49;;;;;;;0.95;0.70;;;9.70;99.90;;;;;;5035819;28;20100;-81
2022/08/13 12:53:17;;;;;;;2.08;0.95;;;9.70;99.90;;;;;;5035684;28;20017;-80
2022/08/13 12:55:45;;;;;;;0.90;0.60;;;9.70;99.90;;;;;;5036106;28;20021;-81
2022/08/13 12:58:24;;;;;;;1.08;0.80;;;9.70;99.90;;;;;;5035624;28;20474;-81
2022/08/13 13:00:55;;;;;;;1.27;0.85;;;9.70;99.90;;;;;;5035658;28;20025;-81
2022/08/13 13:03:23;;;;;;;2.20;0.80;;;9.70;99.90;;;;;;5035341;28;20053;-79
2022/08/13 13:05:51;;;;;;;1.45;1.00;;;9.60;99.90;;;;;;5035846;28;20025;-82
2022/08/13 13:08:27;;;;;;;4.57;0.75;;;9.60;99.90;;;;;;5035578;28;20021;-81
2022/08/13 13:10:58;;;;;;;1.38;0.77;;;9.60;99.90;;;;;;5035584;28;20075;-80
2022/08/13 13:13:27;;;;;;;1.98;0.63;;;9.50;99.90;;;;;;5035283;28;20466;-81
2022/08/13 13:15:56;;;;;;;1.42;0.70;;;9.50;99.90;;;;;;5034930;28;20064;-81
2022/08/13 13:18:26;;;;;;;0.95;0.60;;;9.50;99.90;;;;;;5035475;28;20022;-81
2022/08/13 13:20:54;;;;;;;1.15;0.60;;;9.50;99.90;;;;;;5035364;28;20079;-81
2022/08/13 13:23:24;;;;;;;0.98;0.75;;;9.50;99.90;;;;;;5017565;28;20119;-80
2022/08/13 13:25:54;;;;;;;1.70;0.60;;;9.50;99.90;;;;;;5035059;28;20473;-81
2022/08/13 13:28:24;;;;;;;1.77;0.60;;;9.50;99.90;;;;;;5035098;28;20025;-80
2022/08/13 13:30:53;;;;;;;0.52;0.52;;;9.50;99.90;;;;;;5035318;28;20018;-81
2022/08/13 13:33:23;;;;;;;0.95;0.50;;;9.50;99.90;;;;;;5035003;28;20154;-81